sensor_id;sensor_type;location;lat;lon;timestamp;P1;durP1;ratioP1;P2;durP2;ratioP2
61617;SDS011;47518;51.776;9.370;2023-04-01T00:00:17;3.90;;;2.50;;
61617;SDS011;47518;51.776;9.370;2023-04-01T00:02:43;3.13;;;2.20;;
61617;SDS011;47518;51.776;9.370;2023-04-01T00:05:08;4.00;;;2.03;;
61617;SDS011;47518;51.776;9.370;2023-04-01T00:07:38;3.17;;;1.98;;
61617;SDS011;47518;51.776;9.370;2023-04-01T00:10:05;3.33;;;1.92;;
61617;SDS011;47518;51.776;9.370;2023-04-01T00:12:31;2.63;;;1.80;;
61617;SDS011;47518;51.776;9.370;2023-04-01T00:14:57;2.38;;;2.10;;
61617;SDS011;47518;51.776;9.370;2023-04-01T00:17:22;3.28;;;2.25;;
61617;SDS011;47518;51.776;9.370;2023-04-01T00:19:48;2.17;;;2.00;;
61617;SDS011;47518;51.776;9.370;2023-04-01T00:22:13;2.67;;;2.00;;
61617;SDS011;47518;51.776;9.370;2023-04-01T00:24:38;2.58;;;2.30;;
61617;SDS011;47518;51.776;9.370;2023-04-01T00:27:04;5.20;;;2.50;;
61617;SDS011;47518;51.776;9.370;2023-04-01T00:29:30;4.68;;;2.33;;
61617;SDS011;47518;51.776;9.370;2023-04-01T00:31:56;2.10;;;1.90;;
61617;SDS011;47518;51.776;9.370;2023-04-01T00:34:22;4.40;;;2.38;;
61617;SDS011;47518;51.776;9.370;2023-04-01T00:36:48;2.92;;;2.10;;
61617;SDS011;47518;51.776;9.370;2023-04-01T00:39:15;2.97;;;2.20;;
61617;SDS011;47518;51.776;9.370;2023-04-01T00:41:40;3.25;;;2.00;;
61617;SDS011;47518;51.776;9.370;2023-04-01T00:44:22;2.88;;;2.15;;
61617;SDS011;47518;51.776;9.370;2023-04-01T00:46:54;2.03;;;1.88;;
61617;SDS011;47518;51.776;9.370;2023-04-01T00:49:22;2.30;;;2.10;;
61617;SDS011;47518;51.776;9.370;2023-04-01T00:51:51;2.67;;;2.00;;
61617;SDS011;47518;51.776;9.370;2023-04-01T00:54:20;4.25;;;1.80;;
61617;SDS011;47518;51.776;9.370;2023-04-01T00:56:48;2.55;;;2.10;;
61617;SDS011;47518;51.776;9.370;2023-04-01T00:59:22;8.68;;;2.10;;
61617;SDS011;47518;51.776;9.370;2023-04-01T01:01:52;2.85;;;1.80;;
61617;SDS011;47518;51.776;9.370;2023-04-01T01:04:21;2.97;;;2.17;;
61617;SDS011;47518;51.776;9.370;2023-04-01T01:09:32;2.47;;;1.90;;
61617;SDS011;47518;51.776;9.370;2023-04-01T01:15:02;4.38;;;2.38;;
61617;SDS011;47518;51.776;9.370;2023-04-01T01:17:56;2.10;;;1.80;;
61617;SDS011;47518;51.776;9.370;2023-04-01T01:37:55;2.53;;;2.00;;
61617;SDS011;47518;51.776;9.370;2023-04-01T01:40:25;2.28;;;1.90;;
61617;SDS011;47518;51.776;9.370;2023-04-01T01:42:53;2.38;;;2.17;;
61617;SDS011;47518;51.776;9.370;2023-04-01T01:45:23;4.43;;;2.50;;
61617;SDS011;47518;51.776;9.370;2023-04-01T01:47:53;3.42;;;2.00;;
61617;SDS011;47518;51.776;9.370;2023-04-01T01:50:20;3.38;;;1.98;;
61617;SDS011;47518;51.776;9.370;2023-04-01T01:52:47;4.18;;;2.30;;
61617;SDS011;47518;51.776;9.370;2023-04-01T01:58:02;3.70;;;3.30;;
61617;SDS011;47518;51.776;9.370;2023-04-01T02:00:35;2.72;;;2.00;;
61617;SDS011;47518;51.776;9.370;2023-04-01T02:03:01;3.15;;;2.38;;
61617;SDS011;47518;51.776;9.370;2023-04-01T02:05:28;3.47;;;2.50;;
61617;SDS011;47518;51.776;9.370;2023-04-01T02:07:57;2.10;;;1.90;;
61617;SDS011;47518;51.776;9.370;2023-04-01T02:10:34;4.35;;;2.67;;
61617;SDS011;47518;51.776;9.370;2023-04-01T02:13:03;3.53;;;2.45;;
61617;SDS011;47518;51.776;9.370;2023-04-01T02:15:37;2.85;;;2.28;;
61617;SDS011;47518;51.776;9.370;2023-04-01T02:18:07;2.90;;;2.40;;
61617;SDS011;47518;51.776;9.370;2023-04-01T02:20:34;6.38;;;2.25;;
61617;SDS011;47518;51.776;9.370;2023-04-01T02:23:01;4.68;;;2.30;;
61617;SDS011;47518;51.776;9.370;2023-04-01T02:25:27;2.00;;;1.90;;
61617;SDS011;47518;51.776;9.370;2023-04-01T02:27:56;2.30;;;2.10;;
61617;SDS011;47518;51.776;9.370;2023-04-01T02:30:23;3.58;;;2.20;;
61617;SDS011;47518;51.776;9.370;2023-04-01T02:32:51;3.10;;;2.00;;
61617;SDS011;47518;51.776;9.370;2023-04-01T02:35:18;3.15;;;2.38;;
61617;SDS011;47518;51.776;9.370;2023-04-01T02:37:46;2.78;;;2.50;;
61617;SDS011;47518;51.776;9.370;2023-04-01T02:40:14;2.95;;;2.17;;
61617;SDS011;47518;51.776;9.370;2023-04-01T02:42:40;2.95;;;1.80;;
61617;SDS011;47518;51.776;9.370;2023-04-01T02:45:06;3.63;;;2.00;;
61617;SDS011;47518;51.776;9.370;2023-04-01T02:47:32;2.08;;;1.98;;
61617;SDS011;47518;51.776;9.370;2023-04-01T02:49:58;2.97;;;2.00;;
61617;SDS011;47518;51.776;9.370;2023-04-01T02:52:24;2.30;;;1.80;;
61617;SDS011;47518;51.776;9.370;2023-04-01T02:54:50;2.88;;;1.75;;
61617;SDS011;47518;51.776;9.370;2023-04-01T02:57:16;1.70;;;1.60;;
61617;SDS011;47518;51.776;9.370;2023-04-01T02:59:41;1.95;;;1.80;;
61617;SDS011;47518;51.776;9.370;2023-04-01T03:02:06;2.33;;;1.70;;
61617;SDS011;47518;51.776;9.370;2023-04-01T03:04:32;1.95;;;1.83;;
61617;SDS011;47518;51.776;9.370;2023-04-01T03:06:59;2.03;;;1.73;;
61617;SDS011;47518;51.776;9.370;2023-04-01T03:09:24;3.20;;;1.80;;
61617;SDS011;47518;51.776;9.370;2023-04-01T03:11:49;4.70;;;1.80;;
61617;SDS011;47518;51.776;9.370;2023-04-01T03:14:15;2.05;;;1.70;;
61617;SDS011;47518;51.776;9.370;2023-04-01T03:16:40;2.92;;;1.90;;
61617;SDS011;47518;51.776;9.370;2023-04-01T03:19:05;2.72;;;1.70;;
61617;SDS011;47518;51.776;9.370;2023-04-01T03:21:31;1.73;;;1.60;;
61617;SDS011;47518;51.776;9.370;2023-04-01T03:23:56;2.25;;;1.70;;
61617;SDS011;47518;51.776;9.370;2023-04-01T03:26:21;2.08;;;1.88;;
61617;SDS011;47518;51.776;9.370;2023-04-01T03:28:47;1.70;;;1.60;;
61617;SDS011;47518;51.776;9.370;2023-04-01T03:31:13;1.80;;;1.70;;
61617;SDS011;47518;51.776;9.370;2023-04-01T03:33:39;2.45;;;1.88;;
61617;SDS011;47518;51.776;9.370;2023-04-01T03:36:08;1.83;;;1.73;;
61617;SDS011;47518;51.776;9.370;2023-04-01T03:38:37;2.28;;;1.65;;
61617;SDS011;47518;51.776;9.370;2023-04-01T03:41:04;1.92;;;1.80;;
61617;SDS011;47518;51.776;9.370;2023-04-01T03:43:30;1.70;;;1.60;;
61617;SDS011;47518;51.776;9.370;2023-04-01T03:45:55;1.60;;;1.60;;
61617;SDS011;47518;51.776;9.370;2023-04-01T03:48:23;2.78;;;1.80;;
61617;SDS011;47518;51.776;9.370;2023-04-01T03:50:48;2.20;;;1.60;;
61617;SDS011;47518;51.776;9.370;2023-04-01T03:53:13;1.90;;;1.67;;
61617;SDS011;47518;51.776;9.370;2023-04-01T03:55:40;2.10;;;1.60;;
61617;SDS011;47518;51.776;9.370;2023-04-01T03:58:06;2.08;;;1.60;;
61617;SDS011;47518;51.776;9.370;2023-04-01T04:00:32;3.83;;;2.00;;
61617;SDS011;47518;51.776;9.370;2023-04-01T04:02:57;2.08;;;1.73;;
61617;SDS011;47518;51.776;9.370;2023-04-01T04:05:23;2.08;;;1.80;;
61617;SDS011;47518;51.776;9.370;2023-04-01T04:07:50;2.00;;;1.80;;
61617;SDS011;47518;51.776;9.370;2023-04-01T04:10:16;1.70;;;1.60;;
61617;SDS011;47518;51.776;9.370;2023-04-01T04:12:41;1.98;;;1.60;;
61617;SDS011;47518;51.776;9.370;2023-04-01T04:15:07;1.80;;;1.70;;
61617;SDS011;47518;51.776;9.370;2023-04-01T04:17:33;2.35;;;1.75;;
61617;SDS011;47518;51.776;9.370;2023-04-01T04:19:58;1.95;;;1.80;;
61617;SDS011;47518;51.776;9.370;2023-04-01T04:22:24;2.45;;;1.60;;
61617;SDS011;47518;51.776;9.370;2023-04-01T04:24:49;2.70;;;1.90;;
61617;SDS011;47518;51.776;9.370;2023-04-01T04:27:15;1.80;;;1.70;;
61617;SDS011;47518;51.776;9.370;2023-04-01T04:29:40;1.90;;;1.80;;
61617;SDS011;47518;51.776;9.370;2023-04-01T04:32:06;2.67;;;2.05;;
61617;SDS011;47518;51.776;9.370;2023-04-01T04:34:31;2.30;;;1.63;;
61617;SDS011;47518;51.776;9.370;2023-04-01T04:36:57;2.67;;;1.63;;
61617;SDS011;47518;51.776;9.370;2023-04-01T04:39:22;1.80;;;1.50;;
61617;SDS011;47518;51.776;9.370;2023-04-01T04:41:48;2.03;;;1.70;;
61617;SDS011;47518;51.776;9.370;2023-04-01T04:44:13;2.85;;;1.98;;
61617;SDS011;47518;51.776;9.370;2023-04-01T04:46:39;2.85;;;1.88;;
61617;SDS011;47518;51.776;9.370;2023-04-01T04:49:07;3.08;;;1.60;;
61617;SDS011;47518;51.776;9.370;2023-04-01T04:51:32;1.65;;;1.55;;
61617;SDS011;47518;51.776;9.370;2023-04-01T04:54:01;1.45;;;1.45;;
61617;SDS011;47518;51.776;9.370;2023-04-01T04:56:27;4.13;;;1.70;;
61617;SDS011;47518;51.776;9.370;2023-04-01T04:58:52;2.33;;;1.70;;
61617;SDS011;47518;51.776;9.370;2023-04-01T05:01:18;1.88;;;1.60;;
61617;SDS011;47518;51.776;9.370;2023-04-01T05:03:44;1.90;;;1.70;;
61617;SDS011;47518;51.776;9.370;2023-04-01T05:06:19;2.50;;;1.70;;
61617;SDS011;47518;51.776;9.370;2023-04-01T05:08:45;1.95;;;1.70;;
61617;SDS011;47518;51.776;9.370;2023-04-01T05:11:13;4.50;;;2.90;;
61617;SDS011;47518;51.776;9.370;2023-04-01T05:13:40;3.45;;;2.78;;
61617;SDS011;47518;51.776;9.370;2023-04-01T05:16:15;4.28;;;2.83;;
61617;SDS011;47518;51.776;9.370;2023-04-01T05:18:42;5.43;;;3.22;;
61617;SDS011;47518;51.776;9.370;2023-04-01T05:21:08;2.40;;;2.20;;
61617;SDS011;47518;51.776;9.370;2023-04-01T05:23:35;4.45;;;2.50;;
61617;SDS011;47518;51.776;9.370;2023-04-01T05:26:09;3.25;;;2.47;;
61617;SDS011;47518;51.776;9.370;2023-04-01T05:28:37;2.08;;;1.92;;
61617;SDS011;47518;51.776;9.370;2023-04-01T05:31:03;2.10;;;1.90;;
61617;SDS011;47518;51.776;9.370;2023-04-01T05:33:29;2.35;;;1.70;;
61617;SDS011;47518;51.776;9.370;2023-04-01T05:35:55;1.92;;;1.70;;
61617;SDS011;47518;51.776;9.370;2023-04-01T05:38:21;1.60;;;1.50;;
61617;SDS011;47518;51.776;9.370;2023-04-01T05:40:46;2.25;;;1.58;;
61617;SDS011;47518;51.776;9.370;2023-04-01T05:43:11;1.88;;;1.52;;
61617;SDS011;47518;51.776;9.370;2023-04-01T05:45:37;2.03;;;1.83;;
61617;SDS011;47518;51.776;9.370;2023-04-01T05:48:02;1.73;;;1.60;;
61617;SDS011;47518;51.776;9.370;2023-04-01T05:50:28;1.70;;;1.60;;
61617;SDS011;47518;51.776;9.370;2023-04-01T05:52:54;1.80;;;1.50;;
61617;SDS011;47518;51.776;9.370;2023-04-01T05:55:19;2.22;;;1.73;;
61617;SDS011;47518;51.776;9.370;2023-04-01T05:57:45;2.05;;;1.58;;
61617;SDS011;47518;51.776;9.370;2023-04-01T06:00:11;3.10;;;1.50;;
61617;SDS011;47518;51.776;9.370;2023-04-01T06:02:38;1.60;;;1.50;;
61617;SDS011;47518;51.776;9.370;2023-04-01T06:05:13;2.60;;;1.45;;
61617;SDS011;47518;51.776;9.370;2023-04-01T06:07:46;2.00;;;1.50;;
61617;SDS011;47518;51.776;9.370;2023-04-01T06:24:58;2.05;;;1.50;;
61617;SDS011;47518;51.776;9.370;2023-04-01T06:27:42;2.33;;;1.35;;
61617;SDS011;47518;51.776;9.370;2023-04-01T06:41:33;1.42;;;1.35;;
61617;SDS011;47518;51.776;9.370;2023-04-01T06:44:23;1.83;;;1.50;;
61617;SDS011;47518;51.776;9.370;2023-04-01T06:47:16;2.00;;;1.40;;
61617;SDS011;47518;51.776;9.370;2023-04-01T06:52:47;3.15;;;1.88;;
61617;SDS011;47518;51.776;9.370;2023-04-01T06:55:30;1.40;;;1.30;;
61617;SDS011;47518;51.776;9.370;2023-04-01T06:58:03;1.77;;;1.40;;
61617;SDS011;47518;51.776;9.370;2023-04-01T07:00:36;1.35;;;1.27;;
61617;SDS011;47518;51.776;9.370;2023-04-01T07:03:22;1.63;;;1.50;;
61617;SDS011;47518;51.776;9.370;2023-04-01T07:05:58;1.50;;;1.40;;
61617;SDS011;47518;51.776;9.370;2023-04-01T07:08:28;1.67;;;1.58;;
61617;SDS011;47518;51.776;9.370;2023-04-01T07:10:56;2.42;;;1.50;;
61617;SDS011;47518;51.776;9.370;2023-04-01T07:13:28;1.40;;;1.30;;
61617;SDS011;47518;51.776;9.370;2023-04-01T07:18:41;1.88;;;1.40;;
61617;SDS011;47518;51.776;9.370;2023-04-01T07:21:23;4.78;;;1.60;;
61617;SDS011;47518;51.776;9.370;2023-04-01T07:23:54;1.58;;;1.48;;
61617;SDS011;47518;51.776;9.370;2023-04-01T07:26:25;2.80;;;1.70;;
61617;SDS011;47518;51.776;9.370;2023-04-01T07:28:52;1.80;;;1.70;;
61617;SDS011;47518;51.776;9.370;2023-04-01T07:31:25;2.08;;;1.50;;
61617;SDS011;47518;51.776;9.370;2023-04-01T07:34:23;1.60;;;1.50;;
61617;SDS011;47518;51.776;9.370;2023-04-01T07:37:00;2.65;;;1.80;;
61617;SDS011;47518;51.776;9.370;2023-04-01T07:39:38;1.60;;;1.50;;
61617;SDS011;47518;51.776;9.370;2023-04-01T07:42:24;1.70;;;1.60;;
61617;SDS011;47518;51.776;9.370;2023-04-01T07:48:01;1.85;;;1.55;;
61617;SDS011;47518;51.776;9.370;2023-04-01T07:53:35;1.60;;;1.50;;
61617;SDS011;47518;51.776;9.370;2023-04-01T07:56:08;1.50;;;1.40;;
61617;SDS011;47518;51.776;9.370;2023-04-01T08:07:12;1.67;;;1.50;;
61617;SDS011;47518;51.776;9.370;2023-04-01T08:12:22;2.03;;;1.50;;
61617;SDS011;47518;51.776;9.370;2023-04-01T08:15:16;1.60;;;1.50;;
61617;SDS011;47518;51.776;9.370;2023-04-01T08:23:24;2.22;;;1.70;;
61617;SDS011;47518;51.776;9.370;2023-04-01T08:25:56;1.75;;;1.50;;
61617;SDS011;47518;51.776;9.370;2023-04-01T08:28:29;2.65;;;1.65;;
61617;SDS011;47518;51.776;9.370;2023-04-01T08:31:02;2.10;;;1.83;;
61617;SDS011;47518;51.776;9.370;2023-04-01T08:33:31;2.67;;;1.70;;
61617;SDS011;47518;51.776;9.370;2023-04-01T08:36:14;2.13;;;1.98;;
61617;SDS011;47518;51.776;9.370;2023-04-01T08:38:49;1.95;;;1.85;;
61617;SDS011;47518;51.776;9.370;2023-04-01T08:41:27;1.83;;;1.73;;
61617;SDS011;47518;51.776;9.370;2023-04-01T08:53:00;2.05;;;1.65;;
61617;SDS011;47518;51.776;9.370;2023-04-01T09:01:21;2.28;;;1.63;;
61617;SDS011;47518;51.776;9.370;2023-04-01T09:36:37;2.38;;;2.13;;
61617;SDS011;47518;51.776;9.370;2023-04-01T09:44:44;2.05;;;1.85;;
61617;SDS011;47518;51.776;9.370;2023-04-01T09:47:23;1.85;;;1.75;;
61617;SDS011;47518;51.776;9.370;2023-04-01T09:53:14;2.20;;;2.00;;
61617;SDS011;47518;51.776;9.370;2023-04-01T09:55:55;2.75;;;1.60;;
61617;SDS011;47518;51.776;9.370;2023-04-01T10:01:49;2.20;;;2.00;;
61617;SDS011;47518;51.776;9.370;2023-04-01T10:31:00;1.88;;;1.58;;
61617;SDS011;47518;51.776;9.370;2023-04-01T10:33:50;2.33;;;1.70;;
61617;SDS011;47518;51.776;9.370;2023-04-01T10:36:40;1.73;;;1.58;;
61617;SDS011;47518;51.776;9.370;2023-04-01T10:39:34;1.85;;;1.60;;
61617;SDS011;47518;51.776;9.370;2023-04-01T10:42:17;1.50;;;1.40;;
61617;SDS011;47518;51.776;9.370;2023-04-01T10:45:08;1.80;;;1.50;;
61617;SDS011;47518;51.776;9.370;2023-04-01T10:56:34;1.83;;;1.73;;
61617;SDS011;47518;51.776;9.370;2023-04-01T11:02:22;4.20;;;1.80;;
61617;SDS011;47518;51.776;9.370;2023-04-01T11:14:38;1.40;;;1.40;;
61617;SDS011;47518;51.776;9.370;2023-04-01T11:26:28;1.77;;;1.67;;
61617;SDS011;47518;51.776;9.370;2023-04-01T11:29:24;1.85;;;1.75;;
61617;SDS011;47518;51.776;9.370;2023-04-01T11:32:13;1.55;;;1.48;;
61617;SDS011;47518;51.776;9.370;2023-04-01T11:35:08;1.70;;;1.60;;
61617;SDS011;47518;51.776;9.370;2023-04-01T11:43:55;1.35;;;1.35;;
61617;SDS011;47518;51.776;9.370;2023-04-01T11:46:33;1.92;;;1.48;;
61617;SDS011;47518;51.776;9.370;2023-04-01T11:52:15;1.60;;;1.50;;
61617;SDS011;47518;51.776;9.370;2023-04-01T11:55:06;1.50;;;1.50;;
61617;SDS011;47518;51.776;9.370;2023-04-01T12:04:05;1.70;;;1.60;;
61617;SDS011;47518;51.776;9.370;2023-04-01T12:07:03;1.77;;;1.60;;
61617;SDS011;47518;51.776;9.370;2023-04-01T12:12:54;1.77;;;1.70;;
61617;SDS011;47518;51.776;9.370;2023-04-01T12:15:29;2.20;;;2.00;;
61617;SDS011;47518;51.776;9.370;2023-04-01T12:21:17;1.90;;;1.80;;
61617;SDS011;47518;51.776;9.370;2023-04-01T12:26:54;1.92;;;1.83;;
61617;SDS011;47518;51.776;9.370;2023-04-01T12:30:02;2.00;;;1.90;;
61617;SDS011;47518;51.776;9.370;2023-04-01T12:33:18;4.38;;;1.90;;
61617;SDS011;47518;51.776;9.370;2023-04-01T12:38:46;1.80;;;1.70;;
61617;SDS011;47518;51.776;9.370;2023-04-01T12:59:36;1.70;;;1.60;;
61617;SDS011;47518;51.776;9.370;2023-04-01T13:08:11;1.60;;;1.60;;
61617;SDS011;47518;51.776;9.370;2023-04-01T13:16:23;1.60;;;1.50;;
61617;SDS011;47518;51.776;9.370;2023-04-01T13:18:54;1.50;;;1.40;;
61617;SDS011;47518;51.776;9.370;2023-04-01T13:24:49;1.40;;;1.40;;
61617;SDS011;47518;51.776;9.370;2023-04-01T13:27:41;1.77;;;1.40;;
61617;SDS011;47518;51.776;9.370;2023-04-01T13:30:21;1.42;;;1.40;;
61617;SDS011;47518;51.776;9.370;2023-04-01T13:32:59;1.35;;;1.35;;
61617;SDS011;47518;51.776;9.370;2023-04-01T13:38:24;1.52;;;1.50;;
61617;SDS011;47518;51.776;9.370;2023-04-01T13:44:14;2.30;;;2.10;;
61617;SDS011;47518;51.776;9.370;2023-04-01T13:46:52;2.35;;;1.60;;
61617;SDS011;47518;51.776;9.370;2023-04-01T13:49:31;1.52;;;1.48;;
61617;SDS011;47518;51.776;9.370;2023-04-01T14:02:40;1.70;;;1.60;;
61617;SDS011;47518;51.776;9.370;2023-04-01T14:08:39;1.60;;;1.50;;
61617;SDS011;47518;51.776;9.370;2023-04-01T14:17:06;1.45;;;1.45;;
61617;SDS011;47518;51.776;9.370;2023-04-01T14:28:27;1.90;;;1.80;;
61617;SDS011;47518;51.776;9.370;2023-04-01T14:31:15;1.90;;;1.80;;
61617;SDS011;47518;51.776;9.370;2023-04-01T14:34:00;1.60;;;1.60;;
61617;SDS011;47518;51.776;9.370;2023-04-01T14:36:50;1.90;;;1.80;;
61617;SDS011;47518;51.776;9.370;2023-04-01T14:42:41;2.08;;;1.90;;
61617;SDS011;47518;51.776;9.370;2023-04-01T14:48:17;1.75;;;1.65;;
61617;SDS011;47518;51.776;9.370;2023-04-01T14:51:09;2.03;;;1.50;;
61617;SDS011;47518;51.776;9.370;2023-04-01T14:53:43;1.40;;;1.40;;
61617;SDS011;47518;51.776;9.370;2023-04-01T14:59:09;1.60;;;1.50;;
61617;SDS011;47518;51.776;9.370;2023-04-01T15:04:35;1.80;;;1.70;;
61617;SDS011;47518;51.776;9.370;2023-04-01T15:13:16;1.60;;;1.50;;
61617;SDS011;47518;51.776;9.370;2023-04-01T15:21:32;2.78;;;1.77;;
61617;SDS011;47518;51.776;9.370;2023-04-01T15:24:25;2.55;;;1.90;;
61617;SDS011;47518;51.776;9.370;2023-04-01T15:49:07;2.50;;;2.30;;
61617;SDS011;47518;51.776;9.370;2023-04-01T15:51:58;3.95;;;2.10;;
61617;SDS011;47518;51.776;9.370;2023-04-01T15:54:48;3.25;;;2.00;;
61617;SDS011;47518;51.776;9.370;2023-04-01T16:06:46;2.55;;;2.38;;
61617;SDS011;47518;51.776;9.370;2023-04-01T16:15:03;3.60;;;2.00;;
61617;SDS011;47518;51.776;9.370;2023-04-01T16:20:47;2.03;;;1.92;;
61617;SDS011;47518;51.776;9.370;2023-04-01T16:26:28;2.33;;;1.77;;
61617;SDS011;47518;51.776;9.370;2023-04-01T16:29:05;2.17;;;2.08;;
61617;SDS011;47518;51.776;9.370;2023-04-01T16:31:49;4.03;;;3.10;;
61617;SDS011;47518;51.776;9.370;2023-04-01T16:34:24;2.25;;;2.13;;
61617;SDS011;47518;51.776;9.370;2023-04-01T16:37:00;2.00;;;1.90;;
61617;SDS011;47518;51.776;9.370;2023-04-01T16:39:50;2.13;;;1.98;;
61617;SDS011;47518;51.776;9.370;2023-04-01T16:45:17;2.20;;;2.10;;
61617;SDS011;47518;51.776;9.370;2023-04-01T16:47:56;2.38;;;2.20;;
61617;SDS011;47518;51.776;9.370;2023-04-01T16:50:25;2.00;;;1.90;;
61617;SDS011;47518;51.776;9.370;2023-04-01T16:52:58;2.03;;;1.90;;
61617;SDS011;47518;51.776;9.370;2023-04-01T16:55:34;3.25;;;2.10;;
61617;SDS011;47518;51.776;9.370;2023-04-01T16:58:06;2.00;;;1.90;;
61617;SDS011;47518;51.776;9.370;2023-04-01T17:00:37;2.45;;;2.25;;
61617;SDS011;47518;51.776;9.370;2023-04-01T17:05:48;2.50;;;2.30;;
61617;SDS011;47518;51.776;9.370;2023-04-01T17:08:39;3.45;;;2.97;;
61617;SDS011;47518;51.776;9.370;2023-04-01T17:11:24;3.30;;;3.00;;
61617;SDS011;47518;51.776;9.370;2023-04-01T17:14:13;3.30;;;3.10;;
61617;SDS011;47518;51.776;9.370;2023-04-01T17:16:51;3.35;;;3.05;;
61617;SDS011;47518;51.776;9.370;2023-04-01T17:22:13;2.60;;;2.40;;
61617;SDS011;47518;51.776;9.370;2023-04-01T17:25:13;12.13;;;9.82;;
61617;SDS011;47518;51.776;9.370;2023-04-01T17:27:57;15.77;;;11.10;;
61617;SDS011;47518;51.776;9.370;2023-04-01T17:30:33;8.02;;;6.03;;
61617;SDS011;47518;51.776;9.370;2023-04-01T17:42:15;2.00;;;1.90;;
61617;SDS011;47518;51.776;9.370;2023-04-01T17:50:20;3.63;;;3.17;;
61617;SDS011;47518;51.776;9.370;2023-04-01T18:02:16;3.00;;;2.80;;
61617;SDS011;47518;51.776;9.370;2023-04-01T18:11:02;2.90;;;2.47;;
61617;SDS011;47518;51.776;9.370;2023-04-01T18:17:01;2.30;;;2.20;;
61617;SDS011;47518;51.776;9.370;2023-04-01T18:19:40;2.47;;;2.38;;
61617;SDS011;47518;51.776;9.370;2023-04-01T18:22:19;2.88;;;2.67;;
61617;SDS011;47518;51.776;9.370;2023-04-01T18:27:23;2.88;;;2.58;;
61617;SDS011;47518;51.776;9.370;2023-04-01T18:29:58;3.90;;;3.20;;
61617;SDS011;47518;51.776;9.370;2023-04-01T18:35:52;3.80;;;3.50;;
61617;SDS011;47518;51.776;9.370;2023-04-01T18:41:12;6.32;;;4.45;;
61617;SDS011;47518;51.776;9.370;2023-04-01T18:43:48;3.90;;;3.60;;
61617;SDS011;47518;51.776;9.370;2023-04-01T18:46:27;4.00;;;3.70;;
61617;SDS011;47518;51.776;9.370;2023-04-01T18:52:07;3.45;;;3.25;;
61617;SDS011;47518;51.776;9.370;2023-04-01T18:57:47;3.58;;;3.38;;
61617;SDS011;47518;51.776;9.370;2023-04-01T19:03:00;3.80;;;3.50;;
61617;SDS011;47518;51.776;9.370;2023-04-01T19:05:33;3.70;;;3.40;;
61617;SDS011;47518;51.776;9.370;2023-04-01T19:08:14;4.10;;;3.80;;
61617;SDS011;47518;51.776;9.370;2023-04-01T19:21:37;4.18;;;3.88;;
61617;SDS011;47518;51.776;9.370;2023-04-01T19:29:50;4.40;;;4.10;;
61617;SDS011;47518;51.776;9.370;2023-04-01T19:49:17;4.40;;;4.10;;
61617;SDS011;47518;51.776;9.370;2023-04-01T19:52:00;4.40;;;4.00;;
61617;SDS011;47518;51.776;9.370;2023-04-01T19:54:43;4.13;;;3.83;;
61617;SDS011;47518;51.776;9.370;2023-04-01T19:57:23;4.10;;;3.80;;
61617;SDS011;47518;51.776;9.370;2023-04-01T20:17:24;4.60;;;4.20;;
61617;SDS011;47518;51.776;9.370;2023-04-01T20:19:59;5.45;;;4.68;;
61617;SDS011;47518;51.776;9.370;2023-04-01T20:22:30;4.93;;;4.53;;
61617;SDS011;47518;51.776;9.370;2023-04-01T20:25:06;4.88;;;4.47;;
61617;SDS011;47518;51.776;9.370;2023-04-01T20:27:43;5.13;;;4.45;;
61617;SDS011;47518;51.776;9.370;2023-04-01T20:30:19;4.65;;;4.25;;
61617;SDS011;47518;51.776;9.370;2023-04-01T20:33:13;4.00;;;3.70;;
61617;SDS011;47518;51.776;9.370;2023-04-01T20:38:55;4.82;;;3.50;;
61617;SDS011;47518;51.776;9.370;2023-04-01T20:44:27;3.50;;;3.20;;
61617;SDS011;47518;51.776;9.370;2023-04-01T20:49:51;3.33;;;3.13;;
61617;SDS011;47518;51.776;9.370;2023-04-01T20:52:42;3.47;;;3.20;;
61617;SDS011;47518;51.776;9.370;2023-04-01T20:55:30;3.88;;;3.10;;
61617;SDS011;47518;51.776;9.370;2023-04-01T20:58:24;3.47;;;3.10;;
61617;SDS011;47518;51.776;9.370;2023-04-01T21:11:41;3.10;;;2.90;;
61617;SDS011;47518;51.776;9.370;2023-04-01T21:14:34;3.47;;;3.17;;
61617;SDS011;47518;51.776;9.370;2023-04-01T21:17:23;3.30;;;3.10;;
61617;SDS011;47518;51.776;9.370;2023-04-01T21:22:48;2.60;;;2.50;;
61617;SDS011;47518;51.776;9.370;2023-04-01T21:25:38;2.55;;;2.45;;
61617;SDS011;47518;51.776;9.370;2023-04-01T21:31:36;2.95;;;2.75;;
61617;SDS011;47518;51.776;9.370;2023-04-01T21:56:05;2.70;;;2.60;;
61617;SDS011;47518;51.776;9.370;2023-04-01T22:09:29;3.70;;;3.40;;
61617;SDS011;47518;51.776;9.370;2023-04-01T22:12:04;3.90;;;3.70;;
61617;SDS011;47518;51.776;9.370;2023-04-01T22:20:10;3.38;;;3.17;;
61617;SDS011;47518;51.776;9.370;2023-04-01T22:28:36;2.55;;;2.45;;
61617;SDS011;47518;51.776;9.370;2023-04-01T22:31:06;2.50;;;2.40;;
61617;SDS011;47518;51.776;9.370;2023-04-01T22:34:37;2.45;;;2.35;;
61617;SDS011;47518;51.776;9.370;2023-04-01T22:45:11;2.40;;;2.20;;
61617;SDS011;47518;51.776;9.370;2023-04-01T22:48:17;2.13;;;2.03;;
61617;SDS011;47518;51.776;9.370;2023-04-01T22:53:39;2.30;;;2.20;;
61617;SDS011;47518;51.776;9.370;2023-04-01T22:56:25;2.40;;;2.30;;
61617;SDS011;47518;51.776;9.370;2023-04-01T22:58:56;2.47;;;2.38;;
61617;SDS011;47518;51.776;9.370;2023-04-01T23:01:30;2.28;;;2.17;;
61617;SDS011;47518;51.776;9.370;2023-04-01T23:03:59;2.40;;;2.30;;
61617;SDS011;47518;51.776;9.370;2023-04-01T23:06:32;2.60;;;2.42;;
61617;SDS011;47518;51.776;9.370;2023-04-01T23:11:47;2.40;;;2.30;;
61617;SDS011;47518;51.776;9.370;2023-04-01T23:20:10;2.75;;;2.20;;
61617;SDS011;47518;51.776;9.370;2023-04-01T23:26:04;2.10;;;2.00;;
61617;SDS011;47518;51.776;9.370;2023-04-01T23:28:39;2.13;;;2.03;;
61617;SDS011;47518;51.776;9.370;2023-04-01T23:47:18;2.10;;;1.90;;
61617;SDS011;47518;51.776;9.370;2023-04-01T23:49:48;2.00;;;1.90;;
61617;SDS011;47518;51.776;9.370;2023-04-01T23:52:22;2.38;;;2.17;;
61617;SDS011;47518;51.776;9.370;2023-04-01T23:57:33;2.10;;;2.00;;
